createdAt,value
2022-08-31T00:01:28.007Z,102185.69
2022-08-31T00:06:31.895Z,102176.53
2022-08-31T00:11:37.930Z,102198.72
2022-08-31T00:16:43.292Z,102193.28
2022-08-31T00:21:46.274Z,102189.69
2022-08-31T00:26:50.613Z,102187.78
2022-08-31T00:31:53.997Z,102185.00
2022-08-31T00:36:57.044Z,102182.19
2022-08-31T00:42:01.681Z,102186.34
2022-08-31T00:47:04.859Z,102180.06
2022-08-31T00:52:12.304Z,102169.38
2022-08-31T00:57:17.706Z,102177.25
2022-08-31T01:02:23.918Z,102170.91
2022-08-31T01:07:27.532Z,102183.09
2022-08-31T01:12:32.049Z,102182.22
2022-08-31T01:17:37.663Z,102179.41
2022-08-31T01:22:49.900Z,102179.19
2022-08-31T01:27:55.156Z,102182.56
2022-08-31T01:32:58.052Z,102182.44
2022-08-31T01:38:01.471Z,102184.19
2022-08-31T01:43:06.305Z,102178.78
2022-08-31T01:48:11.521Z,102183.00
2022-08-31T01:53:14.927Z,102181.00
2022-08-31T01:58:19.508Z,102183.50
2022-08-31T02:03:31.484Z,102183.31
2022-08-31T02:08:34.669Z,102173.34
2022-08-31T02:13:39.629Z,102176.84
2022-08-31T02:18:42.596Z,102152.47
2022-08-31T02:23:48.287Z,102166.69
2022-08-31T02:28:52.719Z,102177.19
2022-08-31T02:33:56.476Z,102187.59
2022-08-31T02:38:59.968Z,102185.66
2022-08-31T02:44:05.107Z,102187.38
2022-08-31T02:49:08.317Z,102188.03
2022-08-31T02:54:12.375Z,102182.56
2022-08-31T02:59:16.876Z,102180.66
2022-08-31T03:04:21.485Z,102179.59
2022-08-31T03:09:24.764Z,102181.19
2022-08-31T03:14:29.216Z,102182.78
2022-08-31T03:19:32.159Z,102184.34
2022-08-31T03:24:35.070Z,102187.78
2022-08-31T03:29:39.361Z,102182.31
2022-08-31T03:35:00.546Z,102179.59
2022-08-31T03:40:04.839Z,102182.94
2022-08-31T03:45:11.209Z,102185.53
2022-08-31T03:50:16.190Z,102177.38
2022-08-31T03:55:29.962Z,102188.75
2022-08-31T04:00:35.473Z,102190.38
2022-08-31T04:05:45.263Z,102193.03
2022-08-31T04:10:50.155Z,102209.69
2022-08-31T04:16:14.962Z,102210.38
2022-08-31T04:21:36.222Z,102205.63
2022-08-31T04:26:41.588Z,102207.16
2022-08-31T04:31:47.127Z,102215.66
2022-08-31T04:36:50.067Z,102215.41
2022-08-31T04:41:53.797Z,102216.06
2022-08-31T04:46:58.754Z,102209.59
2022-08-31T04:52:03.090Z,102203.31
2022-08-31T04:57:06.279Z,102213.75
2022-08-31T05:02:10.954Z,102215.19
2022-08-31T05:07:17.656Z,102214.16
2022-08-31T05:12:21.342Z,102214.94
2022-08-31T05:17:25.733Z,102221.00
2022-08-31T05:22:30.452Z,102219.81
2022-08-31T05:27:35.173Z,102232.16
2022-08-31T05:32:39.586Z,102231.44
2022-08-31T05:37:46.372Z,102228.81
2022-08-31T05:42:50.350Z,102232.22
2022-08-31T05:47:54.720Z,102248.16
2022-08-31T05:52:57.791Z,102246.53
2022-08-31T05:58:01.518Z,102244.03
2022-08-31T06:03:06.082Z,102252.09
2022-08-31T06:08:13.227Z,102251.44
2022-08-31T06:13:20.125Z,102252.41
2022-08-31T06:18:24.832Z,102258.88
2022-08-31T06:23:30.031Z,102260.91
2022-08-31T06:28:33.833Z,102261.09
2022-08-31T06:33:40.202Z,102259.56
2022-08-31T06:38:51.688Z,102254.47
2022-08-31T06:44:14.560Z,102260.09
2022-08-31T06:49:37.486Z,102256.91
2022-08-31T06:54:40.504Z,102272.25
2022-08-31T07:00:01.918Z,102274.34
2022-08-31T07:05:25.027Z,102273.00
2022-08-31T07:10:30.013Z,102288.41
2022-08-31T07:15:32.972Z,102287.06
2022-08-31T07:20:37.852Z,102281.25
2022-08-31T07:25:45.062Z,102287.63
2022-08-31T07:30:50.226Z,102279.16
2022-08-31T07:35:55.946Z,102276.81
2022-08-31T07:41:51.196Z,102280.72
2022-08-31T07:46:55.220Z,102285.69
2022-08-31T07:52:01.423Z,102287.28
2022-08-31T07:57:25.722Z,102288.03
2022-08-31T08:02:31.063Z,102294.50
2022-08-31T08:07:36.254Z,102296.19
2022-08-31T08:13:04.946Z,102281.09
2022-08-31T08:18:20.879Z,102288.00
2022-08-31T08:23:29.843Z,102295.31
2022-08-31T08:28:56.129Z,102307.78
2022-08-31T08:34:00.964Z,102297.03
2022-08-31T08:39:08.456Z,102300.63
2022-08-31T08:44:17.841Z,102295.44
2022-08-31T08:49:27.202Z,102288.84
2022-08-31T08:54:35.739Z,102288.78
2022-08-31T08:59:41.886Z,102294.06
2022-08-31T09:05:04.392Z,102302.66
2022-08-31T09:10:32.709Z,102293.28
2022-08-31T09:15:49.532Z,102297.50
2022-08-31T09:21:07.190Z,102302.47
2022-08-31T09:26:17.040Z,102287.72
2022-08-31T09:31:39.886Z,102279.88
2022-08-31T09:36:43.670Z,102268.31
2022-08-31T09:41:50.780Z,102273.50
2022-08-31T09:46:56.712Z,102276.22
2022-08-31T09:52:44.193Z,102283.47
2022-08-31T09:57:54.507Z,102285.22
2022-08-31T10:03:09.894Z,102276.38
2022-08-31T10:08:28.107Z,102282.72
2022-08-31T10:13:39.331Z,102270.16
2022-08-31T10:18:56.126Z,102270.09
2022-08-31T10:24:10.395Z,102263.03
2022-08-31T10:29:23.474Z,102253.19
2022-08-31T10:34:46.046Z,102258.56
2022-08-31T10:39:53.256Z,102249.59
2022-08-31T10:45:09.232Z,102245.91
2022-08-31T10:50:17.037Z,102235.97
2022-08-31T10:55:33.191Z,102247.31
2022-08-31T11:00:49.706Z,102248.00
2022-08-31T11:06:00.121Z,102247.09
2022-08-31T11:11:05.977Z,102241.66
2022-08-31T11:16:31.264Z,102235.56
2022-08-31T11:22:17.595Z,102237.09
2022-08-31T11:27:24.717Z,102230.63
2022-08-31T11:32:34.856Z,102233.66
2022-08-31T11:37:57.246Z,102219.97
2022-08-31T11:43:01.507Z,102203.34
2022-08-31T11:48:12.632Z,102193.19
2022-08-31T11:53:25.399Z,102182.47
2022-08-31T11:58:33.733Z,102190.69
2022-08-31T12:03:53.424Z,102193.13
2022-08-31T12:09:14.136Z,102189.06
2022-08-31T12:14:25.441Z,102184.19
2022-08-31T12:20:00.547Z,102179.97
2022-08-31T12:25:15.903Z,102168.25
2022-08-31T12:30:21.965Z,102163.53
2022-08-31T12:35:27.854Z,102151.75
2022-08-31T12:40:33.154Z,102158.88
2022-08-31T12:45:52.943Z,102149.44
2022-08-31T12:51:05.180Z,102147.41
2022-08-31T12:56:14.863Z,102147.22
2022-08-31T13:01:22.836Z,102141.06
2022-08-31T13:06:29.682Z,102133.16
2022-08-31T13:11:40.690Z,102127.56
2022-08-31T13:16:48.110Z,102124.88
2022-08-31T13:21:57.117Z,102111.41
2022-08-31T13:27:09.099Z,102112.03
2022-08-31T13:32:15.055Z,102113.25
2022-08-31T13:37:25.325Z,102101.34
2022-08-31T13:42:39.536Z,102108.63
2022-08-31T13:47:57.436Z,102113.56
2022-08-31T13:53:25.942Z,102110.03
2022-08-31T13:58:30.305Z,102091.97
2022-08-31T14:03:46.617Z,102110.38
2022-08-31T14:08:53.554Z,102108.44
2022-08-31T14:14:05.944Z,102106.78
2022-08-31T14:19:10.795Z,102104.47
2022-08-31T14:24:16.723Z,102099.69
2022-08-31T14:29:19.783Z,102094.13
2022-08-31T14:34:30.326Z,102101.19
2022-08-31T14:39:37.858Z,102092.09
2022-08-31T14:44:43.043Z,102084.66
2022-08-31T14:49:46.393Z,102088.25
2022-08-31T14:54:50.870Z,102084.16
2022-08-31T14:59:57.678Z,102089.91
2022-08-31T15:05:06.648Z,102083.25
2022-08-31T15:10:13.062Z,102078.13
2022-08-31T15:15:21.101Z,102088.88
2022-08-31T15:20:24.766Z,102079.53
2022-08-31T15:25:29.151Z,102072.47
2022-08-31T15:30:33.858Z,102078.72
2022-08-31T15:35:41.718Z,102073.47
2022-08-31T15:40:46.515Z,102070.03
2022-08-31T15:45:49.755Z,102078.75
2022-08-31T15:51:00.240Z,102078.50
2022-08-31T15:56:06.737Z,102069.75
2022-08-31T16:01:16.303Z,102069.25
2022-08-31T16:06:21.905Z,102066.75
2022-08-31T16:11:28.200Z,102061.72
2022-08-31T16:16:35.587Z,102060.25
2022-08-31T16:21:45.623Z,102048.69
2022-08-31T16:26:55.198Z,102060.53
2022-08-31T16:31:58.246Z,102063.25
2022-08-31T16:37:07.177Z,102064.47
2022-08-31T16:42:12.930Z,102050.50
2022-08-31T16:47:18.861Z,102051.94
2022-08-31T16:52:24.238Z,102059.88
2022-08-31T16:57:32.649Z,102060.16
2022-08-31T17:02:35.987Z,102061.28
2022-08-31T17:07:42.651Z,102061.47
2022-08-31T17:12:48.347Z,102057.28
2022-08-31T17:17:51.353Z,102053.78
2022-08-31T17:22:56.938Z,102054.75
2022-08-31T17:28:07.713Z,102062.06
2022-08-31T17:33:12.727Z,102056.97
2022-08-31T17:38:15.778Z,102066.97
2022-08-31T17:43:21.964Z,102064.38
2022-08-31T17:48:28.192Z,102057.41
2022-08-31T17:53:34.239Z,102071.06
2022-08-31T17:58:38.650Z,102072.13
2022-08-31T18:03:41.883Z,102066.88
2022-08-31T18:08:44.878Z,102077.72
2022-08-31T18:13:53.370Z,102083.13
2022-08-31T18:18:56.702Z,102084.94
2022-08-31T18:23:59.920Z,102095.66
2022-08-31T18:29:06.591Z,102101.00
2022-08-31T18:34:13.769Z,102104.56
2022-08-31T18:39:40.816Z,102108.94
2022-08-31T18:45:05.928Z,102116.00
2022-08-31T18:50:09.766Z,102117.66
2022-08-31T18:55:12.889Z,102122.84
2022-08-31T19:00:17.894Z,102130.75
2022-08-31T19:05:21.000Z,102135.06
2022-08-31T19:10:25.461Z,102147.38
2022-08-31T19:15:35.919Z,102150.81
2022-08-31T19:20:39.534Z,102156.00
2022-08-31T19:25:43.578Z,102140.63
2022-08-31T19:30:48.788Z,102154.78
2022-08-31T19:35:59.478Z,102144.88
2022-08-31T19:41:07.216Z,102155.41
2022-08-31T19:46:14.306Z,102156.16
2022-08-31T19:51:21.879Z,102154.13
2022-08-31T19:56:30.545Z,102162.84
2022-08-31T20:01:35.396Z,102168.03
2022-08-31T20:06:39.326Z,102175.84
2022-08-31T20:11:42.553Z,102174.81
2022-08-31T20:16:47.780Z,102174.66
2022-08-31T20:21:53.895Z,102170.94
2022-08-31T20:27:01.065Z,102169.84
2022-08-31T20:32:07.936Z,102167.00
2022-08-31T20:37:12.856Z,102171.31
2022-08-31T20:42:16.734Z,102172.88
2022-08-31T20:47:38.600Z,102171.75
2022-08-31T20:52:41.876Z,102180.44
2022-08-31T20:57:46.357Z,102181.13
2022-08-31T21:02:52.146Z,102173.81
2022-08-31T21:07:57.617Z,102173.59
2022-08-31T21:13:03.311Z,102165.38
2022-08-31T21:18:07.768Z,102173.22
2022-08-31T21:23:13.348Z,102170.56
2022-08-31T21:28:18.448Z,102168.88
2022-08-31T21:33:23.130Z,102160.06
2022-08-31T21:38:26.862Z,102160.06
2022-08-31T21:43:30.477Z,102174.25
2022-08-31T21:48:37.128Z,102179.38
2022-08-31T21:53:41.316Z,102175.59
2022-08-31T21:58:45.057Z,102181.53
2022-08-31T22:03:53.892Z,102168.88
2022-08-31T22:09:02.850Z,102188.31
2022-08-31T22:14:08.481Z,102183.78
2022-08-31T22:19:14.611Z,102189.00
2022-08-31T22:24:27.339Z,102177.13
2022-08-31T22:29:33.003Z,102195.69
2022-08-31T22:34:38.835Z,102189.16
2022-08-31T22:39:42.773Z,102197.94
2022-08-31T22:44:46.046Z,102202.16
2022-08-31T22:49:50.575Z,102206.41
2022-08-31T22:54:53.962Z,102198.34
2022-08-31T22:59:57.084Z,102192.84
2022-08-31T23:05:03.567Z,102191.75
2022-08-31T23:10:09.141Z,102185.44
2022-08-31T23:15:15.294Z,102180.00
2022-08-31T23:20:24.405Z,102182.56
2022-08-31T23:25:27.617Z,102177.09
2022-08-31T23:30:30.921Z,102152.69
2022-08-31T23:35:35.375Z,102159.84
2022-08-31T23:40:38.563Z,102165.06
2022-08-31T23:45:41.969Z,102152.50
2022-08-31T23:50:46.437Z,102162.34
2022-08-31T23:55:50.223Z,102157.09
